Time;durP1;ratioP1;P1;durP2;ratioP2;P2;SDS_P1;SDS_P2;PMS_P1;PMS_P2;Temp;Humidity;BMP_temperature;BMP_pressure;BME280_temperature;BME280_humidity;BME280_pressure;Samples;Min_cycle;Max_cycle;Signal;HPM_P1;HPM_P2
2023/08/29 00:00:33;;;;;;;4.47;2.80;;;12.30;99.90;;;;;;5036952;28;20049;-73
2023/08/29 00:03:03;;;;;;;4.25;2.70;;;12.30;99.90;;;;;;5053255;28;20409;-73
2023/08/29 00:05:29;;;;;;;4.53;2.85;;;12.30;99.90;;;;;;5054377;28;20100;-73
2023/08/29 00:07:58;;;;;;;7.00;3.00;;;12.30;99.90;;;;;;5053741;28;20123;-73
2023/08/29 00:10:24;;;;;;;4.75;2.70;;;12.20;99.90;;;;;;5054588;28;20049;-73
2023/08/29 00:12:49;;;;;;;5.70;2.75;;;12.30;99.90;;;;;;5054118;28;20110;-73
2023/08/29 00:15:15;;;;;;;4.85;2.63;;;12.20;99.90;;;;;;5036393;28;20045;-73
2023/08/29 00:17:40;;;;;;;4.78;2.60;;;12.20;99.90;;;;;;5053571;28;20037;-74
2023/08/29 00:20:07;;;;;;;4.32;2.70;;;12.20;99.90;;;;;;5054786;28;20040;-73
2023/08/29 00:22:35;;;;;;;4.45;2.70;;;12.20;99.90;;;;;;5036561;28;20136;-73
2023/08/29 00:25:00;;;;;;;5.60;2.80;;;12.20;99.90;;;;;;5036551;28;20051;-73
2023/08/29 00:27:26;;;;;;;4.85;2.90;;;12.20;99.90;;;;;;5036525;28;20037;-73
2023/08/29 00:29:52;;;;;;;4.57;2.63;;;12.10;99.90;;;;;;5053396;28;20123;-73
2023/08/29 00:32:17;;;;;;;5.32;2.65;;;12.10;99.90;;;;;;5054057;28;20045;-73
2023/08/29 00:34:46;;;;;;;4.28;2.88;;;12.10;99.90;;;;;;5036649;28;20118;-73
2023/08/29 00:37:12;;;;;;;4.15;2.70;;;12.20;99.90;;;;;;5054074;28;20500;-73
2023/08/29 00:39:40;;;;;;;4.45;2.70;;;12.10;99.90;;;;;;5054500;28;20446;-73
2023/08/29 00:42:05;;;;;;;6.18;2.60;;;12.00;99.90;;;;;;5054138;28;20041;-73
2023/08/29 00:44:31;;;;;;;6.60;2.80;;;12.00;99.90;;;;;;5053350;28;20041;-73
2023/08/29 00:46:57;;;;;;;4.75;2.10;;;11.90;99.90;;;;;;5036204;28;20056;-73
2023/08/29 00:49:26;;;;;;;4.05;2.55;;;11.90;99.90;;;;;;5054333;28;20549;-73
2023/08/29 00:51:52;;;;;;;4.57;2.50;;;11.80;99.90;;;;;;5035066;28;20103;-73
2023/08/29 00:54:20;;;;;;;3.92;2.38;;;11.80;99.90;;;;;;5054237;28;20088;-73
2023/08/29 00:56:47;;;;;;;4.35;2.30;;;11.80;99.90;;;;;;5036132;28;20055;-73
2023/08/29 00:59:14;;;;;;;4.45;2.22;;;11.70;99.90;;;;;;5053122;28;20448;-73
2023/08/29 01:01:39;;;;;;;6.03;2.50;;;11.70;99.90;;;;;;5053849;28;20049;-73
2023/08/29 01:04:05;;;;;;;4.95;2.65;;;11.70;99.90;;;;;;5035620;28;20110;-73
2023/08/29 01:06:32;;;;;;;4.00;2.38;;;11.70;99.90;;;;;;5053016;28;20041;-73
2023/08/29 01:08:59;;;;;;;4.40;2.40;;;11.70;99.90;;;;;;5053511;28;20049;-73
2023/08/29 01:12:00;;;;;;;4.75;2.42;;;11.70;99.90;;;;;;5036171;28;20094;-73
2023/08/29 01:14:41;;;;;;;4.00;2.70;;;11.70;99.90;;;;;;5022597;28;20084;-73
2023/08/29 01:17:15;;;;;;;4.28;2.40;;;11.70;99.90;;;;;;5053855;28;20052;-73
2023/08/29 01:19:43;;;;;;;4.65;2.67;;;11.60;99.90;;;;;;5035462;28;20400;-73
2023/08/29 01:22:41;;;;;;;4.75;2.70;;;11.60;99.90;;;;;;5053198;28;20484;-73
2023/08/29 01:25:18;;;;;;;5.70;2.42;;;11.60;99.90;;;;;;5015377;28;20531;-73
2023/08/29 01:27:45;;;;;;;4.10;2.55;;;11.60;99.90;;;;;;5053177;28;20079;-73
2023/08/29 01:30:12;;;;;;;5.35;2.80;;;11.60;99.90;;;;;;5053174;28;20052;-73
2023/08/29 01:32:38;;;;;;;5.05;2.50;;;11.60;99.90;;;;;;5035474;28;20077;-73
2023/08/29 01:35:09;;;;;;;4.53;2.40;;;11.60;99.90;;;;;;5052491;28;20045;-73
2023/08/29 01:37:37;;;;;;;4.82;2.60;;;11.60;99.90;;;;;;5035624;28;20048;-73
2023/08/29 01:40:04;;;;;;;4.25;2.53;;;11.60;99.90;;;;;;5052410;28;20095;-73
2023/08/29 01:42:30;;;;;;;4.70;2.45;;;11.60;99.90;;;;;;5053547;28;20123;-73
2023/08/29 01:44:55;;;;;;;3.88;2.33;;;11.60;99.90;;;;;;5052860;28;20124;-72
2023/08/29 01:47:21;;;;;;;5.15;2.50;;;11.60;99.90;;;;;;5052331;28;20037;-73
2023/08/29 01:49:47;;;;;;;3.63;2.40;;;11.50;99.90;;;;;;5052528;28;20128;-73
2023/08/29 01:52:13;;;;;;;6.63;2.40;;;11.60;99.90;;;;;;5053062;28;20041;-72
2023/08/29 01:54:39;;;;;;;4.20;2.60;;;11.60;99.90;;;;;;5052325;28;20044;-73
2023/08/29 01:57:06;;;;;;;6.38;2.42;;;11.50;99.90;;;;;;5034220;28;20053;-72
2023/08/29 01:59:33;;;;;;;4.97;2.42;;;11.50;99.90;;;;;;5052915;28;20041;-72
2023/08/29 02:02:00;;;;;;;4.95;2.88;;;11.50;99.90;;;;;;5051826;28;20037;-73
2023/08/29 02:04:28;;;;;;;4.38;2.70;;;11.50;99.90;;;;;;5035133;28;20053;-73
2023/08/29 02:06:53;;;;;;;4.78;2.70;;;11.50;99.90;;;;;;5052512;28;20052;-73
2023/08/29 02:09:19;;;;;;;4.68;2.45;;;11.50;99.90;;;;;;5033815;28;20049;-73
2023/08/29 02:11:45;;;;;;;5.68;2.63;;;11.40;99.90;;;;;;5034947;28;20044;-73
2023/08/29 02:14:11;;;;;;;4.45;2.42;;;11.40;99.90;;;;;;5052605;28;20412;-73
2023/08/29 02:16:37;;;;;;;4.93;2.88;;;11.40;99.90;;;;;;5051827;28;20040;-73
2023/08/29 02:19:06;;;;;;;6.05;2.90;;;11.40;99.90;;;;;;5052618;28;20974;-73
2023/08/29 02:21:32;;;;;;;5.22;3.10;;;11.40;99.90;;;;;;5052848;28;20124;-72
2023/08/29 02:23:58;;;;;;;6.45;3.00;;;11.50;99.90;;;;;;5034013;28;20049;-73
2023/08/29 02:26:23;;;;;;;6.47;3.05;;;11.40;99.90;;;;;;5052532;28;20044;-73
2023/08/29 02:28:55;;;;;;;3.72;2.70;;;11.40;99.90;;;;;;5034339;28;20075;-73
2023/08/29 02:31:23;;;;;;;5.60;2.95;;;11.40;99.90;;;;;;5051332;28;20083;-73
2023/08/29 02:33:49;;;;;;;4.78;2.83;;;11.40;99.90;;;;;;5047532;28;20084;-73
2023/08/29 02:36:15;;;;;;;4.00;2.40;;;11.30;99.90;;;;;;5051857;28;20500;-73
2023/08/29 02:38:40;;;;;;;3.75;2.00;;;11.40;99.90;;;;;;5052633;28;20476;-73
2023/08/29 02:41:11;;;;;;;3.88;2.10;;;11.40;99.90;;;;;;5052102;28;20060;-73
2023/08/29 02:43:37;;;;;;;3.45;2.13;;;11.30;99.90;;;;;;5051811;28;20045;-73
2023/08/29 02:46:03;;;;;;;3.90;2.00;;;11.30;99.90;;;;;;5034259;28;20533;-72
2023/08/29 02:48:29;;;;;;;4.28;2.40;;;11.30;99.90;;;;;;5050713;28;20404;-73
2023/08/29 02:50:55;;;;;;;4.45;2.22;;;11.20;99.90;;;;;;5031365;28;20053;-72
2023/08/29 02:53:21;;;;;;;5.30;2.20;;;11.20;99.90;;;;;;5014599;28;20045;-73
2023/08/29 02:55:59;;;;;;;2.95;1.65;;;11.10;99.90;;;;;;5036848;28;20040;-73
2023/08/29 02:58:25;;;;;;;3.72;1.83;;;11.10;99.90;;;;;;5051655;28;20033;-73
2023/08/29 03:00:56;;;;;;;3.38;1.88;;;11.10;99.90;;;;;;5051956;28;20120;-73
2023/08/29 03:03:23;;;;;;;5.45;1.90;;;11.10;99.90;;;;;;5052382;28;20036;-73
2023/08/29 03:05:59;;;;;;;4.80;2.30;;;11.00;99.90;;;;;;5040765;28;20052;-73
2023/08/29 03:08:25;;;;;;;3.75;2.25;;;10.90;99.90;;;;;;5027958;28;20372;-75
2023/08/29 03:10:52;;;;;;;4.13;2.40;;;10.90;99.90;;;;;;5033275;28;20048;-72
2023/08/29 03:13:18;;;;;;;4.30;2.40;;;11.00;99.90;;;;;;5055130;28;20484;-72
2023/08/29 03:15:47;;;;;;;3.90;2.08;;;11.00;99.90;;;;;;5055284;28;20052;-72
2023/08/29 03:18:13;;;;;;;5.35;2.30;;;10.90;99.90;;;;;;5055930;28;20041;-72
2023/08/29 03:20:43;;;;;;;4.70;2.53;;;11.00;99.90;;;;;;5055144;28;20465;-72
2023/08/29 03:23:11;;;;;;;3.80;2.50;;;10.90;99.90;;;;;;5055369;28;20049;-73
2023/08/29 03:25:40;;;;;;;4.85;2.38;;;11.00;99.90;;;;;;5054984;28;20036;-73
2023/08/29 03:28:06;;;;;;;4.20;2.15;;;10.90;99.90;;;;;;5055512;28;20058;-74
2023/08/29 03:30:35;;;;;;;6.38;2.25;;;10.90;99.90;;;;;;5054826;28;20053;-73
2023/08/29 03:33:01;;;;;;;3.10;1.70;;;10.90;99.90;;;;;;5054616;28;20080;-73
2023/08/29 03:35:27;;;;;;;3.72;1.92;;;10.90;99.90;;;;;;5037917;28;20041;-73
2023/08/29 03:37:52;;;;;;;3.92;1.73;;;10.80;99.90;;;;;;5054903;28;20111;-71
2023/08/29 03:40:21;;;;;;;3.25;1.95;;;10.90;99.90;;;;;;5054793;28;20041;-72
2023/08/29 03:42:47;;;;;;;2.90;1.70;;;10.80;99.90;;;;;;5055181;28;20435;-72
2023/08/29 03:45:12;;;;;;;3.75;1.85;;;10.80;99.90;;;;;;5055698;28;20099;-72
2023/08/29 03:47:39;;;;;;;3.92;2.30;;;10.80;99.90;;;;;;5054531;28;20037;-72
2023/08/29 03:50:06;;;;;;;4.85;2.58;;;10.80;99.90;;;;;;5055206;28;20041;-72
2023/08/29 03:52:32;;;;;;;4.28;2.75;;;10.80;99.90;;;;;;5054999;28;20041;-72
2023/08/29 03:55:00;;;;;;;7.10;3.10;;;10.90;99.90;;;;;;5036687;28;20128;-72
2023/08/29 03:57:35;;;;;;;4.63;2.80;;;10.90;99.90;;;;;;5055534;28;20075;-72
2023/08/29 04:00:06;;;;;;;4.47;3.00;;;10.90;99.90;;;;;;5037390;28;20040;-72
2023/08/29 04:02:32;;;;;;;5.20;2.83;;;11.00;99.90;;;;;;5053613;28;20115;-72
2023/08/29 04:05:11;;;;;;;5.75;2.83;;;11.00;99.90;;;;;;5054674;28;20037;-72
2023/08/29 04:07:37;;;;;;;4.53;2.67;;;11.00;99.90;;;;;;5052759;28;20095;-72
2023/08/29 04:10:03;;;;;;;4.07;2.53;;;11.00;99.90;;;;;;5053835;28;20037;-73
2023/08/29 04:12:29;;;;;;;6.00;2.70;;;11.00;99.90;;;;;;5054713;28;20063;-73
2023/08/29 04:14:57;;;;;;;4.90;2.67;;;11.00;99.90;;;;;;5054018;28;20045;-72
2023/08/29 04:17:23;;;;;;;4.15;2.80;;;11.00;99.90;;;;;;5054911;28;20045;-74
2023/08/29 04:19:51;;;;;;;4.47;2.75;;;11.00;99.90;;;;;;5036010;28;20037;-73
2023/08/29 04:22:17;;;;;;;5.43;2.70;;;11.00;99.90;;;;;;5051352;28;20056;-73
2023/08/29 04:24:43;;;;;;;4.55;2.47;;;11.00;99.90;;;;;;5054605;28;20092;-73
2023/08/29 04:27:08;;;;;;;4.70;2.75;;;11.00;99.90;;;;;;5054576;28;20547;-73
2023/08/29 04:29:37;;;;;;;6.05;2.80;;;11.00;99.90;;;;;;5054133;28;20049;-73
2023/08/29 04:32:03;;;;;;;4.03;2.75;;;11.00;99.90;;;;;;5054446;28;20040;-73
2023/08/29 04:34:29;;;;;;;4.80;2.90;;;10.90;99.90;;;;;;5053655;28;20619;-73
2023/08/29 04:36:55;;;;;;;4.40;2.80;;;10.90;99.90;;;;;;5053243;28;20128;-72
2023/08/29 04:39:21;;;;;;;5.38;2.58;;;10.90;99.90;;;;;;5054511;28;20052;-73
2023/08/29 04:41:46;;;;;;;4.13;2.72;;;10.90;99.90;;;;;;5054060;28;20056;-73
2023/08/29 04:44:12;;;;;;;6.13;2.83;;;11.10;99.90;;;;;;5053382;28;20391;-73
2023/08/29 04:46:38;;;;;;;3.53;2.45;;;10.90;99.90;;;;;;5036415;28;20063;-72
2023/08/29 04:49:03;;;;;;;4.43;2.63;;;10.90;99.90;;;;;;5053994;28;20051;-72
2023/08/29 04:51:31;;;;;;;6.80;3.08;;;10.90;99.90;;;;;;5053180;28;20119;-73
2023/08/29 04:53:57;;;;;;;4.78;2.50;;;10.90;99.90;;;;;;5021065;28;20049;-73
2023/08/29 04:56:23;;;;;;;5.50;2.95;;;10.90;99.90;;;;;;5034553;28;20042;-73
2023/08/29 04:58:49;;;;;;;4.50;2.75;;;11.00;99.90;;;;;;5035383;28;20060;-73
2023/08/29 05:01:15;;;;;;;6.82;3.20;;;11.00;99.90;;;;;;5016284;28;20042;-73
2023/08/29 05:03:40;;;;;;;5.63;3.20;;;11.10;99.90;;;;;;5016289;28;20072;-73
2023/08/29 05:06:06;;;;;;;5.55;3.17;;;11.10;99.90;;;;;;5033147;28;20441;-73
2023/08/29 05:08:34;;;;;;;5.38;3.40;;;11.20;99.90;;;;;;5033919;28;20493;-73
2023/08/29 05:11:01;;;;;;;7.63;3.80;;;11.50;99.90;;;;;;5032822;28;20090;-73
2023/08/29 05:13:26;;;;;;;5.18;3.30;;;11.30;99.90;;;;;;5033970;28;20041;-73
2023/08/29 05:15:55;;;;;;;5.03;3.25;;;11.40;99.90;;;;;;5033620;28;20034;-72
2023/08/29 05:18:23;;;;;;;4.70;3.38;;;11.40;99.90;;;;;;5033207;28;20045;-73
2023/08/29 05:20:49;;;;;;;4.75;3.47;;;11.50;99.90;;;;;;5033064;28;20045;-73
2023/08/29 05:23:15;;;;;;;5.68;3.72;;;11.50;99.90;;;;;;5033727;28;20033;-73
2023/08/29 05:25:40;;;;;;;5.60;4.10;;;11.70;99.90;;;;;;5031987;28;20044;-72
2023/08/29 05:28:06;;;;;;;6.68;3.70;;;11.70;99.90;;;;;;5056604;28;20041;-72
2023/08/29 05:30:35;;;;;;;6.47;4.07;;;11.90;99.90;;;;;;5033559;28;20477;-72
2023/08/29 05:33:00;;;;;;;6.18;3.70;;;12.00;99.90;;;;;;5032333;28;20057;-72
2023/08/29 05:35:26;;;;;;;9.48;5.22;;;12.20;99.90;;;;;;5037253;28;20115;-73
2023/08/29 05:37:52;;;;;;;7.80;3.92;;;12.40;99.90;;;;;;5033843;28;20037;-76
2023/08/29 05:40:17;;;;;;;7.97;4.20;;;12.50;99.90;;;;;;5051294;28;20037;-76
2023/08/29 05:42:46;;;;;;;6.00;3.80;;;12.70;99.90;;;;;;5034050;28;20114;-76
2023/08/29 05:45:11;;;;;;;5.50;3.53;;;12.90;99.90;;;;;;5052148;28;20044;-76
2023/08/29 05:47:37;;;;;;;5.35;3.05;;;13.00;99.90;;;;;;5018001;28;20045;-76
2023/08/29 05:50:04;;;;;;;5.53;2.78;;;13.10;99.90;;;;;;5033078;28;20045;-76
2023/08/29 05:52:29;;;;;;;4.60;3.10;;;13.20;99.90;;;;;;5015598;28;20042;-77
2023/08/29 05:54:56;;;;;;;4.43;2.78;;;13.40;99.90;;;;;;5031987;28;20136;-77
2023/08/29 05:57:22;;;;;;;4.60;2.25;;;13.50;99.90;;;;;;5033257;28;20073;-77
2023/08/29 05:59:47;;;;;;;3.83;2.38;;;13.60;99.90;;;;;;5032873;28;20473;-74
2023/08/29 06:02:16;;;;;;;4.38;2.53;;;13.70;99.90;;;;;;5047125;28;20044;-73
2023/08/29 06:04:42;;;;;;;3.72;2.33;;;13.80;99.90;;;;;;5052861;28;20039;-73
2023/08/29 06:07:08;;;;;;;4.80;3.15;;;13.90;99.90;;;;;;5051006;28;20137;-73
2023/08/29 06:09:33;;;;;;;4.43;2.72;;;13.90;99.90;;;;;;5052484;28;20518;-73
2023/08/29 06:11:59;;;;;;;5.22;2.40;;;14.00;99.90;;;;;;5052015;28;20045;-73
2023/08/29 06:14:26;;;;;;;5.13;2.30;;;14.00;99.90;;;;;;5051891;28;20053;-74
2023/08/29 06:16:51;;;;;;;3.85;2.50;;;14.10;99.90;;;;;;5052330;28;20044;-74
2023/08/29 06:19:17;;;;;;;4.32;2.40;;;14.10;99.90;;;;;;5052541;28;20040;-73
2023/08/29 06:21:43;;;;;;;3.42;2.15;;;14.10;99.90;;;;;;5051585;28;20114;-73
2023/08/29 06:24:09;;;;;;;3.92;2.38;;;14.20;99.90;;;;;;5052339;28;20037;-73
2023/08/29 06:26:34;;;;;;;3.90;2.35;;;14.30;99.90;;;;;;5052587;28;20142;-75
2023/08/29 06:29:00;;;;;;;3.40;2.20;;;14.30;99.90;;;;;;5051139;28;20044;-72
2023/08/29 06:31:26;;;;;;;3.75;2.60;;;14.30;99.90;;;;;;5051881;28;20103;-73
2023/08/29 06:33:51;;;;;;;4.22;2.42;;;14.40;99.90;;;;;;5033866;28;20045;-74
2023/08/29 06:36:17;;;;;;;5.22;2.50;;;14.50;99.90;;;;;;5051964;28;20048;-74
2023/08/29 06:38:43;;;;;;;5.80;2.60;;;14.50;99.90;;;;;;5034514;28;20128;-74
2023/08/29 06:41:08;;;;;;;3.95;2.35;;;14.60;99.90;;;;;;5052035;28;20033;-73
2023/08/29 06:43:34;;;;;;;3.97;2.35;;;14.70;99.90;;;;;;5051070;28;20127;-73
2023/08/29 06:46:00;;;;;;;5.38;2.40;;;14.80;99.90;;;;;;5034010;28;20049;-74
2023/08/29 06:48:26;;;;;;;3.47;2.35;;;14.80;99.90;;;;;;5052212;28;20138;-74
2023/08/29 06:50:52;;;;;;;2.60;1.70;;;14.90;99.90;;;;;;5051307;28;20045;-74
2023/08/29 06:53:17;;;;;;;4.43;2.03;;;15.00;99.90;;;;;;5034251;28;20049;-74
2023/08/29 06:55:45;;;;;;;4.18;1.90;;;15.10;99.90;;;;;;5052282;28;20571;-73
2023/08/29 06:58:10;;;;;;;3.72;1.98;;;15.20;99.90;;;;;;5033009;28;20039;-74
2023/08/29 07:00:36;;;;;;;3.35;1.98;;;15.30;99.90;;;;;;5034277;28;20454;-73
2023/08/29 07:03:03;;;;;;;4.22;1.70;;;15.40;99.90;;;;;;5051760;28;20527;-74
2023/08/29 07:05:28;;;;;;;4.07;1.92;;;15.50;99.90;;;;;;5034008;28;20124;-74
2023/08/29 07:07:55;;;;;;;2.42;1.63;;;15.70;99.90;;;;;;5033304;28;20140;-74
2023/08/29 07:10:22;;;;;;;5.03;1.98;;;15.90;99.90;;;;;;5034069;28;20052;-74
2023/08/29 07:12:48;;;;;;;3.67;1.90;;;15.90;99.90;;;;;;5051603;28;20477;-74
2023/08/29 07:15:17;;;;;;;3.45;1.85;;;16.00;99.90;;;;;;5034494;28;20044;-73
2023/08/29 07:17:45;;;;;;;3.45;2.22;;;16.00;99.90;;;;;;5051288;28;20746;-74
2023/08/29 07:20:11;;;;;;;5.28;1.90;;;16.10;99.90;;;;;;5051366;28;20037;-74
2023/08/29 07:22:43;;;;;;;4.38;2.22;;;16.30;99.90;;;;;;5052173;28;20102;-74
2023/08/29 07:25:10;;;;;;;4.07;1.92;;;16.40;99.90;;;;;;5051227;28;20036;-73
2023/08/29 07:27:38;;;;;;;3.10;1.70;;;16.50;99.90;;;;;;5033888;28;20126;-73
2023/08/29 07:30:04;;;;;;;3.13;1.90;;;16.70;99.90;;;;;;5050685;28;20500;-73
2023/08/29 07:32:30;;;;;;;3.45;2.08;;;16.80;99.90;;;;;;5050630;28;20059;-74
2023/08/29 07:34:57;;;;;;;3.97;2.17;;;17.40;99.90;;;;;;5051466;28;20053;-74
2023/08/29 07:37:23;;;;;;;3.38;1.77;;;18.10;99.90;;;;;;5052027;28;20048;-75
2023/08/29 07:39:50;;;;;;;4.07;1.95;;;18.40;99.90;;;;;;5032431;28;20409;-75
2023/08/29 07:42:16;;;;;;;3.20;2.00;;;18.50;99.90;;;;;;5051767;28;20048;-78
2023/08/29 07:44:43;;;;;;;3.55;2.03;;;18.50;99.90;;;;;;5051828;28;20037;-75
2023/08/29 07:47:09;;;;;;;2.80;2.00;;;18.50;99.90;;;;;;5032974;28;20045;-76
2023/08/29 07:49:34;;;;;;;6.38;2.20;;;18.60;99.90;;;;;;5051583;28;20060;-76
2023/08/29 07:52:01;;;;;;;6.18;2.33;;;18.80;99.90;;;;;;5047201;28;20037;-74
2023/08/29 07:54:27;;;;;;;3.95;2.15;;;19.00;99.90;;;;;;5054857;28;20037;-77
2023/08/29 07:56:53;;;;;;;3.75;1.90;;;19.20;99.90;;;;;;5051415;28;20087;-79
2023/08/29 07:59:19;;;;;;;3.08;1.70;;;19.10;99.90;;;;;;5044003;28;20091;-77
2023/08/29 08:01:46;;;;;;;5.07;2.30;;;19.10;99.90;;;;;;5054643;28;20044;-77
2023/08/29 08:04:12;;;;;;;3.72;1.52;;;19.00;99.90;;;;;;5041717;28;20099;-78
2023/08/29 08:06:38;;;;;;;3.60;1.92;;;18.90;99.90;;;;;;5046035;28;20029;-80
2023/08/29 08:09:04;;;;;;;2.63;1.80;;;19.00;99.90;;;;;;5038130;28;20080;-80
2023/08/29 08:11:33;;;;;;;4.35;2.00;;;19.00;99.90;;;;;;5023443;28;20047;-78
2023/08/29 08:14:02;;;;;;;2.92;2.00;;;19.00;99.90;;;;;;5029153;28;20041;-79
2023/08/29 08:16:28;;;;;;;4.22;2.05;;;19.00;99.90;;;;;;5058858;28;20041;-79
2023/08/29 08:18:54;;;;;;;3.22;2.33;;;19.10;99.90;;;;;;5043606;28;20130;-79
2023/08/29 08:21:20;;;;;;;4.85;2.30;;;19.20;99.90;;;;;;5054792;28;20053;-78
2023/08/29 08:23:47;;;;;;;3.45;2.20;;;19.30;99.90;;;;;;5035869;28;20075;-76
2023/08/29 08:26:12;;;;;;;4.10;2.28;;;19.40;99.90;;;;;;5060847;28;20090;-76
2023/08/29 08:28:38;;;;;;;2.88;1.90;;;19.40;99.90;;;;;;5058832;28;20041;-76
2023/08/29 08:31:06;;;;;;;2.90;2.00;;;19.50;99.90;;;;;;5059036;28;20052;-80
2023/08/29 08:33:32;;;;;;;3.33;2.50;;;19.50;99.90;;;;;;5052083;28;20048;-80
2023/08/29 08:35:58;;;;;;;5.35;2.50;;;19.50;99.90;;;;;;5050868;28;20036;-77
2023/08/29 08:38:23;;;;;;;4.05;2.50;;;19.50;99.90;;;;;;5042994;28;20060;-77
2023/08/29 08:40:49;;;;;;;3.42;2.40;;;19.60;99.90;;;;;;5057493;28;20033;-81
2023/08/29 08:43:16;;;;;;;3.80;2.45;;;19.70;99.90;;;;;;5067125;28;20060;-81
2023/08/29 08:45:43;;;;;;;3.60;2.47;;;19.90;99.90;;;;;;5044576;28;20044;-81
2023/08/29 08:48:09;;;;;;;3.40;2.60;;;20.00;99.90;;;;;;5061135;28;20098;-82
2023/08/29 08:50:36;;;;;;;4.43;2.53;;;20.20;99.90;;;;;;5056790;28;20508;-80
2023/08/29 08:53:02;;;;;;;4.05;1.90;;;20.40;99.90;;;;;;5047624;28;20101;-81
2023/08/29 08:55:28;;;;;;;3.78;2.13;;;20.50;99.90;;;;;;5062743;28;20052;-79
2023/08/29 08:57:54;;;;;;;3.70;1.95;;;20.60;99.90;;;;;;5058431;28;20037;-80
2023/08/29 09:00:20;;;;;;;3.42;2.50;;;20.60;99.90;;;;;;5053134;28;20064;-80
2023/08/29 09:02:46;;;;;;;4.57;2.65;;;20.70;99.90;;;;;;5057579;28;20046;-74
2023/08/29 09:05:12;;;;;;;3.60;2.17;;;20.80;99.90;;;;;;5063583;28;20127;-77
2023/08/29 09:07:39;;;;;;;3.88;2.47;;;20.90;99.90;;;;;;5057211;28;20189;-74
2023/08/29 09:10:12;;;;;;;4.63;2.85;;;20.80;99.90;;;;;;5052941;28;20045;-76
2023/08/29 09:19:01;;;;;;;3.00;1.92;;;20.70;99.90;;;;;;5176796;22;20072;-77
2023/08/29 09:21:57;;;;;;;3.22;2.10;;;21.40;99.90;;;;;;5054279;28;20092;-75
2023/08/29 09:25:13;;;;;;;2.83;2.05;;;21.90;99.90;;;;;;5052928;28;20084;-76
2023/08/29 09:31:21;;;;;;;3.20;1.83;;;24.80;99.90;;;;;;5060025;28;20075;-76
2023/08/29 09:33:47;;;;;;;2.78;1.90;;;23.60;99.90;;;;;;5058388;28;20080;-77
2023/08/29 09:36:16;;;;;;;3.17;2.03;;;23.40;99.90;;;;;;5053804;28;20040;-75
2023/08/29 09:38:41;;;;;;;3.33;1.60;;;23.20;99.90;;;;;;5052682;28;20046;-75
2023/08/29 09:41:16;;;;;;;3.53;1.63;;;23.30;99.90;;;;;;5053155;28;20040;-75
2023/08/29 09:43:48;;;;;;;3.00;1.92;;;23.30;99.90;;;;;;5053836;28;20139;-75
2023/08/29 09:46:20;;;;;;;3.83;2.22;;;23.60;99.90;;;;;;5052863;28;20055;-75
2023/08/29 09:48:56;;;;;;;2.95;2.05;;;23.40;99.10;;;;;;5071058;28;20056;-74
2023/08/29 09:51:28;;;;;;;3.78;2.05;;;23.40;99.80;;;;;;5054252;28;20051;-76
2023/08/29 09:53:57;;;;;;;3.13;1.90;;;23.20;99.70;;;;;;5054186;28;20044;-75
2023/08/29 09:56:27;;;;;;;4.45;2.10;;;23.50;99.90;;;;;;5055523;28;20434;-76
2023/08/29 09:58:56;;;;;;;3.70;2.05;;;23.80;99.90;;;;;;5055043;28;20119;-76
2023/08/29 10:01:25;;;;;;;5.10;1.80;;;24.00;99.90;;;;;;5072489;28;20040;-76
2023/08/29 10:03:51;;;;;;;3.03;1.88;;;24.00;99.90;;;;;;5054010;28;20048;-77
2023/08/29 10:06:19;;;;;;;5.85;2.67;;;24.10;99.70;;;;;;5054321;28;20052;-77
2023/08/29 10:08:51;;;;;;;4.15;2.10;;;24.30;99.50;;;;;;5072973;28;20101;-77
2023/08/29 10:11:19;;;;;;;4.85;2.10;;;24.40;99.30;;;;;;5045101;28;20480;-77
2023/08/29 10:13:46;;;;;;;3.97;1.80;;;24.40;99.00;;;;;;5052537;28;20498;-77
2023/08/29 10:16:14;;;;;;;3.75;1.80;;;24.30;99.20;;;;;;5035430;28;20052;-78
2023/08/29 10:18:41;;;;;;;3.00;1.50;;;24.40;99.90;;;;;;5052402;28;20049;-76
2023/08/29 10:21:11;;;;;;;2.67;1.60;;;24.60;99.40;;;;;;5051143;28;20363;-76
2023/08/29 10:23:38;;;;;;;4.25;2.20;;;25.00;99.20;;;;;;5034027;28;20037;-76
2023/08/29 10:26:06;;;;;;;3.25;1.92;;;25.10;98.00;;;;;;5052038;28;20058;-76
2023/08/29 10:28:32;;;;;;;3.80;1.92;;;25.10;98.10;;;;;;5054591;28;20059;-76
2023/08/29 10:31:01;;;;;;;4.15;1.83;;;24.90;97.30;;;;;;5033700;28;20045;-76
2023/08/29 10:33:27;;;;;;;3.00;1.88;;;24.90;96.80;;;;;;5033951;28;20447;-76
2023/08/29 10:35:53;;;;;;;3.58;2.05;;;25.00;97.60;;;;;;5033241;28;20040;-73
2023/08/29 10:38:19;;;;;;;2.80;1.60;;;25.70;97.20;;;;;;5051755;28;20040;-74
2023/08/29 10:40:48;;;;;;;2.45;1.40;;;26.10;96.80;;;;;;5034365;28;20049;-75
2023/08/29 10:43:23;;;;;;;2.60;1.25;;;26.00;95.90;;;;;;5043094;28;20448;-74
2023/08/29 10:45:52;;;;;;;2.50;1.37;;;26.40;95.20;;;;;;5044788;28;20100;-74
2023/08/29 10:48:18;;;;;;;3.03;1.70;;;27.10;94.90;;;;;;5072132;28;20098;-74
2023/08/29 10:51:08;;;;;;;2.78;1.50;;;27.20;95.10;;;;;;5053527;28;20094;-74
2023/08/29 10:53:48;;;;;;;3.40;1.58;;;27.10;94.50;;;;;;5069784;28;20518;-74
2023/08/29 10:56:15;;;;;;;2.78;1.70;;;26.70;95.10;;;;;;5034425;28;20051;-75
2023/08/29 10:58:47;;;;;;;2.63;1.60;;;26.60;95.30;;;;;;5051729;28;20122;-76
2023/08/29 11:01:30;;;;;;;3.10;1.50;;;26.70;94.60;;;;;;5031046;28;20091;-77
2023/08/29 11:04:00;;;;;;;3.65;1.70;;;27.20;94.40;;;;;;5032873;28;20500;-77
2023/08/29 11:06:48;;;;;;;2.60;1.55;;;27.70;94.00;;;;;;5051613;28;20504;-77
2023/08/29 11:09:20;;;;;;;2.92;1.80;;;28.30;94.50;;;;;;5033769;28;20045;-76
2023/08/29 11:12:08;;;;;;;2.22;1.40;;;28.40;94.20;;;;;;5051592;28;20106;-74
2023/08/29 11:14:53;;;;;;;2.60;1.40;;;28.30;91.70;;;;;;5034032;28;20045;-75
2023/08/29 11:17:25;;;;;;;3.17;1.40;;;28.00;92.30;;;;;;5033016;28;20045;-72
2023/08/29 11:20:02;;;;;;;3.03;1.23;;;27.40;92.90;;;;;;5051674;28;20049;-74
2023/08/29 11:22:29;;;;;;;2.60;1.30;;;27.30;91.90;;;;;;5034468;28;20060;-73
2023/08/29 11:24:55;;;;;;;1.83;0.98;;;27.70;93.50;;;;;;5051115;28;20083;-74
2023/08/29 11:27:23;;;;;;;3.08;1.20;;;27.70;92.90;;;;;;5034260;28;20094;-74
2023/08/29 11:30:19;;;;;;;4.45;1.60;;;28.10;92.70;;;;;;5055428;28;20484;-74
2023/08/29 11:32:51;;;;;;;2.58;1.23;;;28.30;91.90;;;;;;5037112;28;20137;-74
2023/08/29 11:35:17;;;;;;;2.35;1.15;;;28.30;90.50;;;;;;5038224;28;20075;-75
2023/08/29 11:37:43;;;;;;;3.28;1.40;;;28.50;90.50;;;;;;5037061;28;20053;-75
2023/08/29 11:40:10;;;;;;;1.90;1.05;;;28.20;89.30;;;;;;5036495;28;20036;-75
2023/08/29 11:42:35;;;;;;;3.95;1.42;;;28.40;88.80;;;;;;5036938;28;20480;-76
2023/08/29 11:45:06;;;;;;;3.85;1.40;;;28.20;84.90;;;;;;5036160;28;20041;-75
2023/08/29 11:47:31;;;;;;;2.55;1.35;;;27.80;88.40;;;;;;5033554;28;20078;-76
2023/08/29 11:49:57;;;;;;;3.03;1.50;;;27.40;90.20;;;;;;5037827;28;20086;-74
2023/08/29 11:52:22;;;;;;;2.90;1.38;;;27.70;89.10;;;;;;5036312;28;20495;-76
2023/08/29 11:54:50;;;;;;;2.70;1.20;;;27.50;90.30;;;;;;5037586;28;20045;-77
2023/08/29 11:57:16;;;;;;;2.30;1.20;;;28.00;90.20;;;;;;5055734;28;20044;-77
2023/08/29 11:59:46;;;;;;;3.35;1.40;;;28.50;92.00;;;;;;5054376;28;20041;-76
2023/08/29 12:02:16;;;;;;;3.55;1.50;;;28.20;90.20;;;;;;5037325;28;20041;-76
2023/08/29 12:04:45;;;;;;;2.72;1.50;;;28.20;90.50;;;;;;5064907;28;20052;-72
2023/08/29 12:07:18;;;;;;;2.65;1.48;;;28.00;89.10;;;;;;5072137;28;20044;-75
2023/08/29 12:09:46;;;;;;;3.53;1.35;;;27.50;88.30;;;;;;5067004;28;20033;-75
2023/08/29 12:12:34;;;;;;;2.65;1.60;;;28.00;90.20;;;;;;5066831;28;20597;-80
2023/08/29 12:15:00;;;;;;;3.30;1.60;;;28.50;87.00;;;;;;5054650;28;20049;-79
2023/08/29 12:17:38;;;;;;;3.72;1.60;;;28.20;86.20;;;;;;5072934;28;20511;-80
2023/08/29 12:20:29;;;;;;;3.25;1.40;;;27.70;88.60;;;;;;5068121;28;20060;-80
2023/08/29 12:22:55;;;;;;;3.08;1.40;;;26.90;89.20;;;;;;5034829;28;20487;-80
2023/08/29 12:25:27;;;;;;;2.75;1.50;;;26.10;90.50;;;;;;5072817;28;20048;-80
2023/08/29 12:27:53;;;;;;;3.55;1.58;;;25.70;91.10;;;;;;5053630;28;20048;-80
2023/08/29 12:30:18;;;;;;;3.40;1.90;;;24.90;91.70;;;;;;5054802;28;20043;-80
2023/08/29 12:32:46;;;;;;;3.42;1.70;;;24.70;92.70;;;;;;5054164;28;20040;-80
2023/08/29 12:35:15;;;;;;;4.18;1.80;;;24.40;93.70;;;;;;5072564;28;20052;-79
2023/08/29 12:37:41;;;;;;;4.05;1.83;;;24.10;94.10;;;;;;5056856;28;20470;-80
2023/08/29 12:40:08;;;;;;;3.35;1.60;;;23.80;94.20;;;;;;5055811;28;20138;-80
2023/08/29 12:42:35;;;;;;;2.90;1.50;;;23.60;94.30;;;;;;5073808;28;20068;-80
2023/08/29 12:45:02;;;;;;;2.92;1.80;;;23.50;95.20;;;;;;5073772;28;20484;-80
2023/08/29 12:47:27;;;;;;;4.00;2.00;;;23.30;95.40;;;;;;5053068;28;20125;-79
2023/08/29 12:49:53;;;;;;;3.30;1.80;;;23.10;95.00;;;;;;5053664;28;20095;-80
2023/08/29 12:52:19;;;;;;;4.43;1.95;;;23.10;95.70;;;;;;5054572;28;20041;-80
2023/08/29 12:54:45;;;;;;;4.10;1.70;;;23.00;96.30;;;;;;5054376;28;20048;-80
2023/08/29 12:57:13;;;;;;;4.47;1.98;;;23.00;96.20;;;;;;5052611;28;20041;-80
2023/08/29 12:59:39;;;;;;;3.40;1.98;;;23.20;96.60;;;;;;5053069;28;20045;-80
2023/08/29 13:02:05;;;;;;;3.17;1.73;;;23.40;95.90;;;;;;5053021;28;20115;-80